Time;durP1;ratioP1;P1;durP2;ratioP2;P2;SDS_P1;SDS_P2;PMS_P1;PMS_P2;Temp;Humidity;BMP_temperature;BMP_pressure;BME280_temperature;BME280_humidity;BME280_pressure;Samples;Min_cycle;Max_cycle;Signal;HPM_P1;HPM_P2
2022/01/21 00:01:00;;;;;;;;;;;0.50;95.30;;;;;;5065680;28;19980;-70
2022/01/21 00:03:27;;;;;;;;;;;0.50;95.10;;;;;;5065753;28;19951;-70
2022/01/21 00:05:53;;;;;;;;;;;0.60;95.20;;;;;;5048125;28;19970;-70
2022/01/21 00:08:18;;;;;;;;;;;0.60;95.30;;;;;;5063988;28;20195;-69
2022/01/21 00:10:44;;;;;;;;;;;0.60;95.50;;;;;;5065541;28;19908;-70
2022/01/21 00:13:22;;;;;;;;;;;0.60;95.60;;;;;;5064953;28;20230;-69
2022/01/21 00:15:48;;;;;;;;;;;0.60;95.90;;;;;;5064449;28;20202;-69
2022/01/21 00:18:13;;;;;;;;;;;0.60;95.80;;;;;;5064394;28;19919;-70
2022/01/21 00:31:36;;;;;;;;;;;0.30;96.70;;;;;;5065364;28;19915;-71
2022/01/21 00:34:01;;;;;;;;;;;0.20;97.30;;;;;;5065384;28;19909;-70
2022/01/21 00:36:27;;;;;;;;;;;0.10;97.70;;;;;;5064927;28;19943;-70
2022/01/21 00:38:55;;;;;;;;;;;0.10;97.10;;;;;;5065115;28;20115;-70
2022/01/21 00:41:25;;;;;;;;;;;0.00;96.90;;;;;;5065159;28;19913;-71
2022/01/21 00:43:51;;;;;;;;;;;0.00;96.60;;;;;;5063721;28;19916;-70
2022/01/21 00:46:16;;;;;;;;;;;0.00;96.50;;;;;;5064759;28;20119;-71
2022/01/21 00:48:42;;;;;;;;;;;0.00;96.20;;;;;;5064984;28;19909;-71
2022/01/21 00:51:08;;;;;;;;;;;-0.10;95.90;;;;;;5064893;28;19912;-71
2022/01/21 00:53:33;;;;;;;;;;;-0.10;95.80;;;;;;5063891;28;19917;-71
2022/01/21 00:55:59;;;;;;;;;;;-0.10;95.60;;;;;;5064918;28;20019;-70
2022/01/21 00:58:25;;;;;;;;;;;-0.10;95.60;;;;;;5064163;28;19960;-71
2022/01/21 01:00:50;;;;;;;;;;;-0.20;95.40;;;;;;5064661;28;20141;-71
2022/01/21 01:03:19;;;;;;;;;;;-0.20;95.40;;;;;;5063605;28;19913;-71
2022/01/21 01:05:49;;;;;;;;;;;-0.20;95.20;;;;;;5064814;28;20333;-71
2022/01/21 01:08:15;;;;;;;;;;;-0.20;95.20;;;;;;5063326;28;19915;-70
2022/01/21 01:11:12;;;;;;;;;;;-0.20;95.10;;;;;;5064921;28;19909;-70
2022/01/21 01:21:48;;;;;;;;;;;-0.10;95.00;;;;;;5064388;28;20015;-70
2022/01/21 01:29:42;;;;;;;;;;;-0.30;95.00;;;;;;5063777;28;20265;-70
2022/01/21 01:32:07;;;;;;;;;;;-0.40;95.10;;;;;;5063937;28;19987;-70
2022/01/21 01:34:33;;;;;;;;;;;-0.40;95.00;;;;;;5079607;28;20088;-70
2022/01/21 01:37:04;;;;;;;;;;;-0.40;95.00;;;;;;5063796;28;19916;-70
2022/01/21 01:39:40;;;;;;;;;;;-0.50;95.00;;;;;;5063886;28;19912;-70
2022/01/21 01:50:04;;;;;;;;;;;-0.20;95.40;;;;;;5063705;28;19947;-70
2022/01/21 01:52:30;;;;;;;;;;;-0.20;96.50;;;;;;5062788;28;19909;-70
2022/01/21 01:54:56;;;;;;;;;;;-0.10;97.10;;;;;;5062653;28;19954;-70
2022/01/21 01:57:22;;;;;;;;;;;-0.10;97.60;;;;;;5062190;28;19909;-70
2022/01/21 01:59:48;;;;;;;;;;;-0.20;97.80;;;;;;5063606;28;19932;-71
2022/01/21 02:02:16;;;;;;;;;;;-0.20;98.20;;;;;;5063539;28;19957;-70
2022/01/21 02:04:43;;;;;;;;;;;-0.20;98.30;;;;;;5060967;28;19915;-71
2022/01/21 02:07:09;;;;;;;;;;;-0.20;98.10;;;;;;5062069;28;19912;-71
2022/01/21 02:09:35;;;;;;;;;;;-0.30;97.70;;;;;;5062098;28;19955;-71
2022/01/21 02:12:01;;;;;;;;;;;-0.40;97.90;;;;;;5045718;28;20142;-70
2022/01/21 02:14:31;;;;;;;;;;;-0.40;97.70;;;;;;5062656;28;19976;-70
2022/01/21 02:22:10;;;;;;;;;;;-0.70;98.00;;;;;;5038092;28;20225;-70
2022/01/21 02:24:48;;;;;;;;;;;-0.70;98.30;;;;;;5063163;28;20092;-70
2022/01/21 02:27:14;;;;;;;;;;;-0.70;98.40;;;;;;5061765;28;19931;-70
2022/01/21 02:29:48;;;;;;;;;;;-0.80;98.50;;;;;;5062153;28;19909;-73
2022/01/21 02:32:14;;;;;;;;;;;-0.90;98.70;;;;;;5061944;28;20092;-71
2022/01/21 02:34:41;;;;;;;;;;;-0.90;98.90;;;;;;5061876;28;19908;-70
2022/01/21 02:37:07;;;;;;;;;;;-1.00;98.80;;;;;;5061591;28;20207;-71
2022/01/21 02:39:33;;;;;;;;;;;-1.00;98.80;;;;;;5062910;28;19909;-71
2022/01/21 02:41:59;;;;;;;;;;;-1.10;98.80;;;;;;5062894;28;19920;-71
2022/01/21 02:44:25;;;;;;;;;;;-1.20;98.90;;;;;;5062771;28;19909;-71
2022/01/21 02:46:55;;;;;;;;;;;-1.20;99.00;;;;;;5078205;28;19947;-71
2022/01/21 02:49:22;;;;;;;;;;;-1.30;99.00;;;;;;5045879;28;19909;-71
2022/01/21 02:51:49;;;;;;;;;;;-1.40;99.10;;;;;;5061835;28;19912;-71
2022/01/21 02:54:14;;;;;;;;;;;-1.30;99.40;;;;;;5077917;28;20162;-71
2022/01/21 02:56:40;;;;;;;;;;;-1.40;99.40;;;;;;5061250;28;19913;-71
2022/01/21 02:59:07;;;;;;;;;;;-1.40;99.40;;;;;;5078303;28;19909;-71
2022/01/21 03:01:35;;;;;;;;;;;-1.40;99.50;;;;;;5060909;28;19988;-71
2022/01/21 03:04:01;;;;;;;;;;;-1.50;99.40;;;;;;5061728;28;19932;-71
2022/01/21 03:06:27;;;;;;;;;;;-1.50;99.20;;;;;;5061516;28;19916;-71
2022/01/21 03:08:57;;;;;;;;;;;-1.60;99.00;;;;;;5062735;28;19908;-71
2022/01/21 03:11:24;;;;;;;;;;;-1.60;99.10;;;;;;5045680;28;19915;-71
2022/01/21 03:13:49;;;;;;;;;;;-1.70;99.10;;;;;;5062735;28;19915;-71
2022/01/21 03:16:15;;;;;;;;;;;-1.80;99.20;;;;;;5065289;28;19909;-71
2022/01/21 03:18:42;;;;;;;;;;;-1.70;99.20;;;;;;5066472;28;19916;-71
2022/01/21 03:21:10;;;;;;;;;;;-1.80;99.00;;;;;;5065382;28;19940;-71
2022/01/21 03:23:36;;;;;;;;;;;-1.90;99.20;;;;;;5048651;28;19913;-71
2022/01/21 03:26:02;;;;;;;;;;;-1.80;99.00;;;;;;5048878;28;19913;-71
2022/01/21 03:28:29;;;;;;;;;;;-1.90;99.00;;;;;;5066288;28;19909;-71
2022/01/21 03:30:56;;;;;;;;;;;-1.80;98.80;;;;;;5065137;28;19909;-71
2022/01/21 03:33:25;;;;;;;;;;;-1.80;98.70;;;;;;5066338;28;19946;-71
2022/01/21 03:35:51;;;;;;;;;;;-2.00;98.80;;;;;;5066527;28;19923;-71
2022/01/21 03:38:18;;;;;;;;;;;-2.10;98.90;;;;;;5066089;28;19916;-71
2022/01/21 03:40:44;;;;;;;;;;;-2.10;99.00;;;;;;5044276;28;19979;-71
2022/01/21 03:43:12;;;;;;;;;;;-2.10;99.10;;;;;;5046178;28;19920;-71
2022/01/21 03:45:38;;;;;;;;;;;-2.20;98.90;;;;;;5046231;28;19987;-71
2022/01/21 03:48:05;;;;;;;;;;;-2.20;98.80;;;;;;5061316;28;19955;-71
2022/01/21 03:50:32;;;;;;;;;;;-2.20;98.80;;;;;;5046013;28;19916;-71
2022/01/21 03:53:01;;;;;;;;;;;-2.30;98.60;;;;;;5046061;28;19912;-71
2022/01/21 03:55:27;;;;;;;;;;;-2.30;98.60;;;;;;5044623;28;19984;-71
2022/01/21 03:57:53;;;;;;;;;;;-2.30;98.70;;;;;;5061051;28;20115;-71
2022/01/21 04:00:21;;;;;;;;;;;-2.30;98.70;;;;;;5045837;28;19909;-71
2022/01/21 04:02:47;;;;;;;;;;;-2.40;98.50;;;;;;5028193;28;19913;-71
2022/01/21 04:05:13;;;;;;;;;;;-2.40;98.60;;;;;;5054010;28;19923;-70
2022/01/21 04:07:39;;;;;;;;;;;-2.40;98.70;;;;;;5065416;28;19943;-70
2022/01/21 04:10:05;;;;;;;;;;;-2.40;99.00;;;;;;5064176;28;19940;-71
2022/01/21 04:12:31;;;;;;;;;;;-2.50;98.70;;;;;;5064491;28;19931;-70
2022/01/21 04:14:58;;;;;;;;;;;-2.50;98.90;;;;;;5065508;28;19909;-70
2022/01/21 04:19:52;;;;;;;;;;;-2.50;98.80;;;;;;5036800;23;20119;-65
2022/01/21 04:22:18;;;;;;;;;;;-2.50;98.90;;;;;;5019660;28;19914;-62
2022/01/21 04:24:45;;;;;;;;;;;-2.50;98.80;;;;;;5021415;28;19909;-63
2022/01/21 04:27:12;;;;;;;;;;;-2.50;98.70;;;;;;5016243;28;19909;-63
2022/01/21 04:29:37;;;;;;;;;;;-2.60;98.80;;;;;;5025497;28;19910;-63
2022/01/21 04:32:04;;;;;;;;;;;-2.50;98.80;;;;;;5016374;28;19917;-63
2022/01/21 04:34:29;;;;;;;;;;;-2.60;99.00;;;;;;5005778;28;19918;-63
2022/01/21 04:36:55;;;;;;;;;;;-2.60;98.90;;;;;;5005723;28;19917;-62
2022/01/21 04:39:27;;;;;;;;;;;-2.60;98.80;;;;;;5009948;28;19955;-61
2022/01/21 04:47:22;;;;;;;;;;;-2.70;98.90;;;;;;5005737;28;19957;-63
2022/01/21 04:49:48;;;;;;;;;;;-2.70;99.00;;;;;;5005582;28;19972;-63
2022/01/21 04:52:14;;;;;;;;;;;-2.80;99.10;;;;;;5005762;28;19937;-63
2022/01/21 04:54:40;;;;;;;;;;;-2.80;99.20;;;;;;5020872;28;19952;-63
2022/01/21 04:57:06;;;;;;;;;;;-2.70;99.30;;;;;;5004709;28;19910;-63
2022/01/21 04:59:31;;;;;;;;;;;-2.80;99.40;;;;;;5005720;28;19953;-63
2022/01/21 05:01:57;;;;;;;;;;;-2.80;99.50;;;;;;5005668;28;19921;-62
2022/01/21 05:04:23;;;;;;;;;;;-2.90;99.40;;;;;;5005575;28;19933;-63
2022/01/21 05:06:51;;;;;;;;;;;-2.90;99.50;;;;;;5005353;28;19910;-63
2022/01/21 05:09:17;;;;;;;;;;;-2.90;99.40;;;;;;5005443;28;19909;-62
2022/01/21 05:11:43;;;;;;;;;;;-2.90;99.30;;;;;;5005309;28;19944;-62
2022/01/21 05:14:18;;;;;;;;;;;-2.90;99.40;;;;;;5020522;28;20240;-63
2022/01/21 05:16:48;;;;;;;;;;;-2.90;99.30;;;;;;5012966;28;20336;-64
2022/01/21 05:19:16;;;;;;;;;;;-3.00;99.30;;;;;;4985199;28;19921;-63
2022/01/21 05:21:42;;;;;;;;;;;-3.00;99.30;;;;;;4985662;28;19922;-65
2022/01/21 05:24:08;;;;;;;;;;;-3.00;99.30;;;;;;4985713;28;19932;-63
2022/01/21 05:26:38;;;;;;;;;;;-3.00;99.40;;;;;;4998245;28;20208;-62
2022/01/21 05:29:05;;;;;;;;;;;-3.00;99.40;;;;;;5004852;28;19917;-63
2022/01/21 05:31:31;;;;;;;;;;;-3.10;99.40;;;;;;5004845;28;19910;-64
2022/01/21 05:33:56;;;;;;;;;;;-3.10;99.40;;;;;;5004550;28;19973;-64
2022/01/21 05:36:22;;;;;;;;;;;-3.10;99.50;;;;;;5004387;28;19910;-63
2022/01/21 05:38:48;;;;;;;;;;;-3.00;99.70;;;;;;5004573;28;19917;-64
2022/01/21 05:41:14;;;;;;;;;;;-2.90;99.50;;;;;;5004634;28;19980;-64
2022/01/21 05:43:45;;;;;;;;;;;-3.00;99.30;;;;;;5003662;28;19914;-64
2022/01/21 05:48:56;;;;;;;;;;;-2.90;99.40;;;;;;5003306;28;19933;-64
2022/01/21 05:51:22;;;;;;;;;;;-2.90;99.60;;;;;;5019503;28;19917;-65
2022/01/21 05:53:48;;;;;;;;;;;-2.90;99.60;;;;;;5004542;28;20092;-64
2022/01/21 05:56:14;;;;;;;;;;;-2.90;99.50;;;;;;4992288;28;19937;-66
2022/01/21 05:58:39;;;;;;;;;;;-2.90;99.50;;;;;;5004430;28;19910;-66
2022/01/21 06:01:05;;;;;;;;;;;-2.80;99.50;;;;;;5004368;28;19956;-66
2022/01/21 06:03:31;;;;;;;;;;;-2.60;99.30;;;;;;5004351;28;19914;-66
2022/01/21 06:05:57;;;;;;;;;;;-2.50;99.10;;;;;;4999961;28;20147;-66
2022/01/21 06:08:23;;;;;;;;;;;-2.50;98.80;;;;;;5003911;28;19917;-66
2022/01/21 06:10:48;;;;;;;;;;;-2.40;98.80;;;;;;5003996;28;19909;-65
2022/01/21 06:13:17;;;;;;;;;;;-2.40;98.80;;;;;;5003879;28;19909;-65
2022/01/21 06:15:43;;;;;;;;;;;-2.40;98.80;;;;;;5004145;28;19941;-65
2022/01/21 06:18:09;;;;;;;;;;;-2.40;98.80;;;;;;5001862;28;19949;-65
2022/01/21 06:20:34;;;;;;;;;;;-2.50;99.10;;;;;;5003476;28;19910;-65
2022/01/21 06:23:00;;;;;;;;;;;-2.50;99.20;;;;;;5003754;28;20163;-65
2022/01/21 06:25:26;;;;;;;;;;;-2.50;99.30;;;;;;5003890;28;20115;-66
2022/01/21 06:27:51;;;;;;;;;;;-2.60;99.30;;;;;;5003677;28;19948;-65
2022/01/21 06:30:17;;;;;;;;;;;-2.60;99.30;;;;;;5003160;28;19910;-66
2022/01/21 06:32:43;;;;;;;;;;;-2.70;99.30;;;;;;5002205;28;20275;-65
2022/01/21 06:35:09;;;;;;;;;;;-2.80;99.40;;;;;;5002662;28;19952;-66
2022/01/21 06:37:35;;;;;;;;;;;-2.80;99.30;;;;;;5002665;28;20019;-66
2022/01/21 06:40:01;;;;;;;;;;;-2.80;99.30;;;;;;5003173;28;19909;-65
2022/01/21 06:42:28;;;;;;;;;;;-2.90;99.40;;;;;;4999497;28;19917;-65
2022/01/21 06:44:54;;;;;;;;;;;-3.00;99.50;;;;;;4986185;28;19961;-66
2022/01/21 06:47:20;;;;;;;;;;;-2.90;99.60;;;;;;4982890;28;19914;-66
2022/01/21 06:49:46;;;;;;;;;;;-2.90;99.60;;;;;;4984781;28;19938;-65
2022/01/21 06:52:12;;;;;;;;;;;-2.80;99.60;;;;;;4988806;28;19910;-66
2022/01/21 06:54:38;;;;;;;;;;;-2.90;99.50;;;;;;4997430;28;20204;-66
2022/01/21 06:57:04;;;;;;;;;;;-2.90;99.50;;;;;;5002770;28;19929;-68
2022/01/21 06:59:29;;;;;;;;;;;-2.90;99.30;;;;;;4990310;28;20260;-67
2022/01/21 07:01:55;;;;;;;;;;;-2.90;99.20;;;;;;4990492;28;19914;-67
2022/01/21 07:04:21;;;;;;;;;;;-2.90;99.30;;;;;;4990311;28;19910;-66
2022/01/21 07:06:46;;;;;;;;;;;-3.00;99.30;;;;;;4990118;28;20227;-67
2022/01/21 07:09:12;;;;;;;;;;;-2.90;99.30;;;;;;4990183;28;19945;-67
2022/01/21 07:11:38;;;;;;;;;;;-2.80;99.50;;;;;;4990065;28;19916;-67
2022/01/21 07:14:04;;;;;;;;;;;-2.70;99.60;;;;;;4990263;28;19910;-67
2022/01/21 07:16:30;;;;;;;;;;;-2.70;99.60;;;;;;4990131;28;19910;-66
2022/01/21 07:18:56;;;;;;;;;;;-2.60;99.60;;;;;;4988159;28;19983;-67
2022/01/21 07:21:21;;;;;;;;;;;-2.60;99.50;;;;;;4989934;28;19910;-67
2022/01/21 07:23:47;;;;;;;;;;;-2.60;99.60;;;;;;5000954;28;19914;-67
2022/01/21 07:26:14;;;;;;;;;;;-2.50;99.50;;;;;;5009016;28;19917;-67
2022/01/21 07:28:40;;;;;;;;;;;-2.50;99.50;;;;;;5008996;28;19956;-67
2022/01/21 07:31:06;;;;;;;;;;;-2.40;99.40;;;;;;5009421;28;19914;-67
2022/01/21 07:33:31;;;;;;;;;;;-2.40;99.00;;;;;;5008381;28;20208;-68
2022/01/21 07:35:57;;;;;;;;;;;-2.40;98.70;;;;;;5009622;28;19916;-67
2022/01/21 07:38:23;;;;;;;;;;;-2.40;98.60;;;;;;5009114;28;19909;-68
2022/01/21 07:40:48;;;;;;;;;;;-2.40;98.60;;;;;;5009699;28;19909;-66
2022/01/21 07:43:14;;;;;;;;;;;-2.40;98.80;;;;;;5024893;28;20230;-66
2022/01/21 07:45:40;;;;;;;;;;;-2.40;99.10;;;;;;5009578;28;20143;-67
2022/01/21 07:48:06;;;;;;;;;;;-2.40;99.30;;;;;;5008699;28;19914;-67
2022/01/21 07:50:32;;;;;;;;;;;-2.20;99.50;;;;;;5009336;28;19948;-67
2022/01/21 07:52:58;;;;;;;;;;;-2.20;99.40;;;;;;5024701;28;19910;-67
2022/01/21 07:55:23;;;;;;;;;;;-2.00;99.20;;;;;;5009459;28;19948;-67
2022/01/21 07:57:49;;;;;;;;;;;-2.00;99.00;;;;;;5007828;28;19909;-68
2022/01/21 08:00:15;;;;;;;;;;;-1.90;99.10;;;;;;5008944;28;20089;-67
2022/01/21 08:02:41;;;;;;;;;;;-1.80;99.00;;;;;;5003938;28;19937;-67
2022/01/21 08:05:07;;;;;;;;;;;-1.70;98.70;;;;;;5005978;28;20093;-67
2022/01/21 08:07:33;;;;;;;;;;;-1.70;98.60;;;;;;5005978;28;19917;-67
2022/01/21 08:09:58;;;;;;;;;;;-1.70;98.70;;;;;;5005869;28;19910;-67
2022/01/21 08:12:24;;;;;;;;;;;-1.70;98.60;;;;;;5005051;28;19918;-67
2022/01/21 08:14:50;;;;;;;;;;;-1.70;98.60;;;;;;5006871;28;19910;-67
2022/01/21 08:17:15;;;;;;;;;;;-1.70;98.60;;;;;;5004589;28;19917;-67
2022/01/21 08:19:41;;;;;;;;;;;-1.70;98.80;;;;;;5005111;28;19977;-67
2022/01/21 08:22:07;;;;;;;;;;;-1.70;98.90;;;;;;5005944;28;19914;-67
2022/01/21 08:24:32;;;;;;;;;;;-1.60;99.00;;;;;;5005282;28;19910;-67
2022/01/21 08:26:58;;;;;;;;;;;-1.60;99.10;;;;;;5004964;28;19910;-67
2022/01/21 08:29:24;;;;;;;;;;;-1.50;98.80;;;;;;5005146;28;19925;-67
2022/01/21 08:31:49;;;;;;;;;;;-1.50;98.70;;;;;;5005777;28;20330;-67
2022/01/21 08:34:15;;;;;;;;;;;-1.30;98.30;;;;;;5004380;28;19924;-67
2022/01/21 08:36:41;;;;;;;;;;;-1.20;98.00;;;;;;5005519;28;19917;-67
2022/01/21 08:39:06;;;;;;;;;;;-1.10;97.80;;;;;;5020695;28;19910;-67
2022/01/21 08:41:32;;;;;;;;;;;-0.90;97.60;;;;;;5005674;28;19914;-68
2022/01/21 08:43:58;;;;;;;;;;;-0.80;97.30;;;;;;5005492;28;19917;-67
2022/01/21 08:46:24;;;;;;;;;;;-0.70;97.50;;;;;;5005423;28;19909;-67
2022/01/21 08:48:49;;;;;;;;;;;-0.60;97.30;;;;;;5005317;28;19910;-67
2022/01/21 08:51:22;;;;;;;;;;;-0.50;97.20;;;;;;5004211;28;20108;-67
2022/01/21 08:53:48;;;;;;;;;;;-0.40;97.00;;;;;;5005036;28;20231;-67
2022/01/21 08:56:15;;;;;;;;;;;-0.30;96.60;;;;;;5004052;28;19972;-67
2022/01/21 08:58:41;;;;;;;;;;;-0.20;96.70;;;;;;5003418;28;20163;-67
2022/01/21 09:01:07;;;;;;;;;;;-0.10;96.40;;;;;;5004066;28;19909;-67
2022/01/21 09:03:33;;;;;;;;;;;-0.10;96.30;;;;;;5003209;28;19953;-67
2022/01/21 09:05:58;;;;;;;;;;;0.10;96.30;;;;;;5004313;28;19910;-67
2022/01/21 09:08:28;;;;;;;;;;;0.20;95.70;;;;;;5004467;28;19929;-67
2022/01/21 09:10:53;;;;;;;;;;;0.20;95.40;;;;;;5019426;28;20093;-67
2022/01/21 09:13:21;;;;;;;;;;;0.30;95.80;;;;;;5002523;28;19909;-71
2022/01/21 09:15:47;;;;;;;;;;;0.30;95.50;;;;;;5002577;28;19917;-68
2022/01/21 09:18:18;;;;;;;;;;;0.40;95.60;;;;;;4984922;28;19914;-68
2022/01/21 09:20:43;;;;;;;;;;;0.50;95.70;;;;;;4983850;28;20196;-68
2022/01/21 09:23:09;;;;;;;;;;;0.50;95.70;;;;;;4984471;28;19929;-68
2022/01/21 09:25:35;;;;;;;;;;;0.50;95.60;;;;;;4984917;28;19956;-68
2022/01/21 09:28:01;;;;;;;;;;;0.60;95.80;;;;;;4984736;28;20171;-68
2022/01/21 09:30:27;;;;;;;;;;;0.60;95.80;;;;;;4984976;28;19985;-69
2022/01/21 09:32:53;;;;;;;;;;;0.60;95.60;;;;;;4992730;28;19940;-69
2022/01/21 09:35:18;;;;;;;;;;;0.60;95.30;;;;;;5003079;28;19921;-69
2022/01/21 09:37:44;;;;;;;;;;;0.60;95.30;;;;;;5003990;28;19909;-68
2022/01/21 09:40:10;;;;;;;;;;;0.70;95.00;;;;;;5003764;28;19909;-69
2022/01/21 09:42:36;;;;;;;;;;;0.70;94.90;;;;;;5004318;28;19913;-69
2022/01/21 09:45:08;;;;;;;;;;;0.90;94.90;;;;;;4999440;28;20222;-71
2022/01/21 09:47:43;;;;;;;;;;;0.90;94.90;;;;;;5002802;28;20116;-70
2022/01/21 09:50:10;;;;;;;;;;;0.90;94.50;;;;;;5003637;28;19913;-68
2022/01/21 09:52:37;;;;;;;;;;;1.00;94.50;;;;;;5003684;28;19933;-71
2022/01/21 09:55:04;;;;;;;;;;;1.10;94.50;;;;;;5003044;28;19910;-71
2022/01/21 09:57:29;;;;;;;;;;;1.20;94.00;;;;;;5002539;28;20216;-71
2022/01/21 09:59:55;;;;;;;;;;;1.10;94.20;;;;;;5019342;28;19910;-71
2022/01/21 10:02:26;;;;;;;;;;;1.10;94.30;;;;;;5003951;28;19996;-67
2022/01/21 10:04:52;;;;;;;;;;;1.20;94.40;;;;;;5003563;28;19929;-67
2022/01/21 10:07:19;;;;;;;;;;;1.30;94.40;;;;;;5018874;28;20096;-67
2022/01/21 10:09:45;;;;;;;;;;;1.40;93.90;;;;;;5002872;28;20115;-67
2022/01/21 10:12:11;;;;;;;;;;;1.70;94.00;;;;;;5003512;28;19917;-67
2022/01/21 10:14:38;;;;;;;;;;;1.80;93.30;;;;;;5017208;28;19910;-70
2022/01/21 10:17:05;;;;;;;;;;;1.80;92.60;;;;;;5002458;28;20151;-64
2022/01/21 10:19:32;;;;;;;;;;;1.90;92.70;;;;;;5003377;28;19913;-66
2022/01/21 10:22:02;;;;;;;;;;;1.80;92.70;;;;;;5003577;28;19913;-65
2022/01/21 10:24:28;;;;;;;;;;;1.80;92.80;;;;;;5003158;28;19909;-67
2022/01/21 10:26:55;;;;;;;;;;;1.80;92.60;;;;;;5003183;28;20223;-67
2022/01/21 10:29:21;;;;;;;;;;;1.80;92.80;;;;;;5018233;28;20219;-66
2022/01/21 10:31:58;;;;;;;;;;;1.70;92.80;;;;;;5003276;28;19910;-66
2022/01/21 10:34:40;;;;;;;;;;;1.70;92.30;;;;;;5003480;28;19924;-63
2022/01/21 10:37:26;;;;;;;;;;;1.60;92.70;;;;;;5003184;28;19909;-67
2022/01/21 10:39:58;;;;;;;;;;;1.60;93.00;;;;;;5004131;28;19966;-63
2022/01/21 10:42:24;;;;;;;;;;;1.70;92.80;;;;;;5003398;28;20216;-63
2022/01/21 10:44:50;;;;;;;;;;;1.70;92.80;;;;;;4992400;28;19910;-63
2022/01/21 10:47:16;;;;;;;;;;;1.70;92.70;;;;;;4986165;28;19977;-63
2022/01/21 10:49:44;;;;;;;;;;;1.90;92.00;;;;;;5001839;28;19913;-63
2022/01/21 10:52:11;;;;;;;;;;;2.00;91.80;;;;;;5002899;28;20263;-64
2022/01/21 10:54:44;;;;;;;;;;;2.10;91.70;;;;;;5003136;28;19914;-63
2022/01/21 10:57:19;;;;;;;;;;;2.20;91.70;;;;;;5002816;28;19918;-63
2022/01/21 10:59:56;;;;;;;;;;;2.40;91.50;;;;;;5002049;28;20116;-63
2022/01/21 11:02:35;;;;;;;;;;;2.40;91.20;;;;;;5003251;28;19913;-63
2022/01/21 11:05:08;;;;;;;;;;;2.50;90.90;;;;;;5002177;28;19922;-63
2022/01/21 11:07:48;;;;;;;;;;;2.40;91.30;;;;;;5002578;28;19909;-64
2022/01/21 11:10:32;;;;;;;;;;;2.40;91.10;;;;;;5003071;28;20112;-63
2022/01/21 11:12:58;;;;;;;;;;;2.40;91.10;;;;;;5002875;28;19916;-64
2022/01/21 11:15:24;;;;;;;;;;;2.40;91.10;;;;;;5001111;28;19910;-64
2022/01/21 11:18:02;;;;;;;;;;;2.50;90.80;;;;;;5002215;28;19950;-64
2022/01/21 11:20:36;;;;;;;;;;;2.30;91.00;;;;;;5002039;28;20927;-64
2022/01/21 11:23:02;;;;;;;;;;;2.40;91.50;;;;;;5003014;28;19909;-64
2022/01/21 11:25:54;;;;;;;;;;;2.50;91.60;;;;;;5002854;28;19910;-64
2022/01/21 11:28:22;;;;;;;;;;;2.50;91.40;;;;;;5002333;28;20093;-64
2022/01/21 11:30:48;;;;;;;;;;;2.60;91.00;;;;;;5002850;28;19909;-64
2022/01/21 11:33:13;;;;;;;;;;;2.60;90.80;;;;;;5002497;28;19956;-64
2022/01/21 11:35:39;;;;;;;;;;;2.70;90.90;;;;;;5003308;28;19914;-64
2022/01/21 11:38:07;;;;;;;;;;;2.70;90.70;;;;;;5006064;28;19910;-64
2022/01/21 11:40:33;;;;;;;;;;;2.30;91.30;;;;;;5021730;28;19913;-64
2022/01/21 11:42:58;;;;;;;;;;;2.40;91.80;;;;;;5006057;28;20315;-64
2022/01/21 11:50:48;;;;;;;;;;;3.10;90.10;;;;;;5005388;28;19910;-64
2022/01/21 11:53:14;;;;;;;;;;;3.10;90.00;;;;;;5006223;28;20208;-65
2022/01/21 11:55:45;;;;;;;;;;;3.30;87.80;;;;;;5006328;28;19910;-65
2022/01/21 11:58:20;;;;;;;;;;;3.50;87.80;;;;;;5004840;28;19917;-64
2022/01/21 12:00:50;;;;;;;;;;;4.00;86.30;;;;;;5006019;28;20111;-65
2022/01/21 12:03:19;;;;;;;;;;;4.00;85.40;;;;;;5006149;28;20001;-65
2022/01/21 12:05:44;;;;;;;;;;;3.70;85.90;;;;;;5020710;28;19917;-64
2022/01/21 12:08:10;;;;;;;;;;;3.60;87.60;;;;;;5005468;28;19988;-65
2022/01/21 12:10:39;;;;;;;;;;;3.50;88.10;;;;;;5005695;28;20200;-65
2022/01/21 12:13:09;;;;;;;;;;;3.30;87.90;;;;;;5004874;28;19910;-65
2022/01/21 12:16:07;;;;;;;;;;;3.30;88.60;;;;;;4991917;28;19949;-65
2022/01/21 12:18:59;;;;;;;;;;;3.40;89.10;;;;;;4997446;28;19913;-65
2022/01/21 12:21:29;;;;;;;;;;;3.60;89.10;;;;;;5005500;28;20164;-65
2022/01/21 12:23:55;;;;;;;;;;;4.00;86.70;;;;;;5005781;28;19909;-65
2022/01/21 12:26:24;;;;;;;;;;;4.10;86.20;;;;;;5005301;28;19917;-65
2022/01/21 12:28:57;;;;;;;;;;;4.00;85.90;;;;;;5005292;28;20108;-65
2022/01/21 12:31:24;;;;;;;;;;;3.80;86.10;;;;;;5005203;28;19932;-65
2022/01/21 12:34:09;;;;;;;;;;;3.60;86.70;;;;;;5005221;28;19910;-65
2022/01/21 12:36:41;;;;;;;;;;;3.40;87.90;;;;;;5004413;28;19909;-65
2022/01/21 12:39:41;;;;;;;;;;;3.40;88.90;;;;;;5005330;28;19910;-65
2022/01/21 12:42:27;;;;;;;;;;;3.20;89.60;;;;;;5005962;28;20179;-65
2022/01/21 12:45:15;;;;;;;;;;;3.10;90.40;;;;;;4999503;28;19918;-66
2022/01/21 12:47:43;;;;;;;;;;;2.80;91.10;;;;;;4979851;28;20204;-65
2022/01/21 12:50:17;;;;;;;;;;;2.80;91.40;;;;;;4996597;28;20204;-65
2022/01/21 12:52:56;;;;;;;;;;;2.90;91.50;;;;;;5005244;28;19980;-65
2022/01/21 12:58:12;;;;;;;;;;;3.20;90.50;;;;;;5003734;28;20215;-65
2022/01/21 13:00:38;;;;;;;;;;;3.30;90.40;;;;;;5004755;28;19914;-66
2022/01/21 13:03:08;;;;;;;;;;;3.40;89.70;;;;;;5005190;28;19910;-65
2022/01/21 13:05:39;;;;;;;;;;;3.40;89.50;;;;;;5019554;28;20136;-65
2022/01/21 13:08:14;;;;;;;;;;;3.40;90.10;;;;;;5019842;28;20283;-65
2022/01/21 13:10:40;;;;;;;;;;;3.40;90.00;;;;;;5019904;28;19909;-65
2022/01/21 13:15:45;;;;;;;;;;;3.80;88.60;;;;;;5003354;28;19917;-65
2022/01/21 13:18:18;;;;;;;;;;;3.90;87.90;;;;;;5004408;28;19914;-65
2022/01/21 13:20:48;;;;;;;;;;;3.70;88.10;;;;;;5004507;28;19914;-66
2022/01/21 13:23:45;;;;;;;;;;;3.80;89.50;;;;;;5004319;28;19917;-65
2022/01/21 13:26:25;;;;;;;;;;;3.90;88.80;;;;;;5004260;28;19910;-65
2022/01/21 13:29:06;;;;;;;;;;;3.80;89.20;;;;;;5004437;28;20012;-66
2022/01/21 13:31:34;;;;;;;;;;;3.70;90.10;;;;;;5004117;28;20001;-65
2022/01/21 13:34:08;;;;;;;;;;;3.70;90.60;;;;;;5004585;28;19917;-65
2022/01/21 13:36:49;;;;;;;;;;;3.50;90.30;;;;;;5004009;28;19949;-65
2022/01/21 13:39:38;;;;;;;;;;;3.40;91.00;;;;;;5004094;28;19918;-65
2022/01/21 13:42:11;;;;;;;;;;;3.40;91.40;;;;;;5004267;28;19910;-65
2022/01/21 13:44:52;;;;;;;;;;;3.20;91.90;;;;;;5002425;28;19948;-65
2022/01/21 13:47:28;;;;;;;;;;;2.90;92.30;;;;;;4983881;28;19910;-65
2022/01/21 13:50:03;;;;;;;;;;;2.80;92.90;;;;;;4987705;28;19984;-71
2022/01/21 13:52:40;;;;;;;;;;;2.70;93.20;;;;;;5003824;28;19956;-68
2022/01/21 13:55:07;;;;;;;;;;;2.60;93.50;;;;;;5018894;28;19909;-68
2022/01/21 13:57:33;;;;;;;;;;;2.50;94.00;;;;;;5003654;28;19945;-67
2022/01/21 13:59:59;;;;;;;;;;;2.40;94.50;;;;;;5001728;28;19913;-68
2022/01/21 14:02:24;;;;;;;;;;;2.40;94.50;;;;;;5003936;28;19976;-68
2022/01/21 14:04:57;;;;;;;;;;;2.40;94.70;;;;;;5003896;28;19921;-68
2022/01/21 14:07:34;;;;;;;;;;;2.30;94.30;;;;;;5018780;28;20318;-68
2022/01/21 14:10:06;;;;;;;;;;;2.20;95.10;;;;;;5019174;28;20155;-67
2022/01/21 14:12:32;;;;;;;;;;;2.10;95.80;;;;;;5017748;28;19916;-67
2022/01/21 14:14:58;;;;;;;;;;;2.20;95.70;;;;;;5000716;28;19925;-67
2022/01/21 14:17:24;;;;;;;;;;;2.20;95.90;;;;;;4986201;28;19945;-67
2022/01/21 14:19:54;;;;;;;;;;;2.10;96.10;;;;;;5002220;28;19940;-67
2022/01/21 14:22:20;;;;;;;;;;;2.10;96.00;;;;;;5003493;28;19910;-68
2022/01/21 14:24:48;;;;;;;;;;;2.00;96.20;;;;;;5003388;28;19981;-68
2022/01/21 14:27:34;;;;;;;;;;;1.90;96.70;;;;;;5002982;28;19984;-68
2022/01/21 14:30:03;;;;;;;;;;;1.80;97.30;;;;;;5003157;28;19981;-68
2022/01/21 14:32:38;;;;;;;;;;;1.80;97.60;;;;;;5003087;28;19932;-69
2022/01/21 14:35:07;;;;;;;;;;;1.70;97.90;;;;;;5002455;28;19918;-68
2022/01/21 14:37:36;;;;;;;;;;;1.60;98.30;;;;;;5002931;28;20196;-68
2022/01/21 14:40:03;;;;;;;;;;;1.60;98.40;;;;;;5003263;28;19988;-68
2022/01/21 14:42:29;;;;;;;;;;;1.60;98.50;;;;;;5003244;28;19916;-68
2022/01/21 14:45:00;;;;;;;;;;;1.60;98.50;;;;;;5001299;28;20165;-68
2022/01/21 14:47:28;;;;;;;;;;;1.60;98.30;;;;;;5001708;28;19917;-68
2022/01/21 14:50:06;;;;;;;;;;;1.60;98.40;;;;;;5002953;28;19909;-68
2022/01/21 14:52:44;;;;;;;;;;;1.70;98.20;;;;;;5001312;28;19909;-68
2022/01/21 14:55:15;;;;;;;;;;;1.60;98.30;;;;;;5003083;28;19916;-68
2022/01/21 14:57:54;;;;;;;;;;;1.60;98.60;;;;;;5001968;28;19918;-68
2022/01/21 15:00:23;;;;;;;;;;;1.60;98.60;;;;;;5002970;28;19914;-69
2022/01/21 15:02:49;;;;;;;;;;;1.60;98.80;;;;;;5002946;28;19910;-68
2022/01/21 15:05:15;;;;;;;;;;;1.60;98.90;;;;;;5018121;28;19917;-70
2022/01/21 15:07:42;;;;;;;;;;;1.60;98.80;;;;;;5001857;28;19909;-71
2022/01/21 15:10:41;;;;;;;;;;;1.60;98.80;;;;;;5003414;28;19910;-70
2022/01/21 15:16:09;;;;;;;;;;;1.60;98.90;;;;;;5005761;28;19917;-71
2022/01/21 15:18:35;;;;;;;;;;;1.70;98.90;;;;;;5005785;28;19921;-70
2022/01/21 15:21:01;;;;;;;;;;;1.60;98.90;;;;;;5005555;28;19921;-71
2022/01/21 15:23:27;;;;;;;;;;;1.60;98.80;;;;;;5006942;28;19910;-70
2022/01/21 15:25:53;;;;;;;;;;;1.60;99.00;;;;;;5006795;28;19925;-71
2022/01/21 15:28:19;;;;;;;;;;;1.60;99.10;;;;;;5005604;28;19910;-71
2022/01/21 15:30:46;;;;;;;;;;;1.60;99.00;;;;;;5006830;28;19910;-70
2022/01/21 15:33:12;;;;;;;;;;;1.60;99.00;;;;;;5006896;28;19909;-71